Pawnee, Texas
Current Conditions -  °F | °C
As of 1:55 PM on Saturday 25 Oct 2014 (Local Time) from KBEA Reporting Station
Clear Clear  
Wind Chill: 30°   Ceiling: Unl
Heat Index: 30°   Visibility: 10mi
Dew Point: 14°   Wind: 3mph
Humidity: 36%   Direction: 90°E
Pressure: 30.13"   Gusts: NA
Location:  28.65°N, 98°W
Report Text: KBEA 251855Z AUTO 09003KT 10SM CLR 31/14 A3013 RMK AO2 T03050137
Loading
Personal Weather Stations






























Interactive Weather Map
Tropical Storm Tracking
New forecast layout! Learn more

10-Day Weather Forecast

Advertisements
Track Severe Weather on mobile